createdAt,value
2023-03-26T12:21:34.040Z,18.52
2023-03-26T12:22:34.327Z,18.30
2023-03-26T12:23:35.095Z,18.00
2023-03-26T12:24:35.018Z,17.95
2023-03-26T12:25:33.240Z,17.76
2023-03-26T12:26:35.027Z,17.89
2023-03-26T12:27:34.806Z,18.12
2023-03-26T12:28:35.037Z,18.20
2023-03-26T12:29:33.987Z,18.20
2023-03-26T12:30:35.020Z,18.31
2023-03-26T12:31:33.197Z,18.43
2023-03-26T12:32:45.741Z,18.55
2023-03-26T12:33:56.978Z,18.53
2023-03-26T12:34:33.968Z,18.59
2023-03-26T12:35:34.904Z,18.50
2023-03-26T12:36:34.970Z,18.50
2023-03-26T12:37:55.437Z,18.50
2023-03-26T12:38:33.921Z,18.44
2023-03-26T12:40:08.608Z,18.30
2023-03-26T12:40:34.902Z,18.05
2023-03-26T12:43:51.320Z,17.54
2023-03-26T12:45:05.112Z,17.14
2023-03-26T12:45:32.647Z,17.45
2023-03-26T12:47:54.461Z,17.63
2023-03-26T12:48:08.844Z,17.79
2023-03-26T12:48:36.796Z,17.88
2023-03-26T12:49:16.014Z,17.89
2023-03-26T12:50:14.357Z,18.03
2023-03-26T12:51:36.739Z,18.12
2023-03-26T12:52:15.076Z,18.05
2023-03-26T12:53:36.956Z,17.63
2023-03-26T12:54:15.098Z,17.24
2023-03-26T12:55:14.906Z,17.12
2023-03-26T12:56:36.922Z,17.33
2023-03-26T12:57:15.107Z,17.51
2023-03-26T12:58:37.518Z,17.63
2023-03-26T12:59:14.956Z,17.70
2023-03-26T13:00:37.205Z,17.76
2023-03-26T13:01:14.937Z,17.86
2023-03-26T13:02:36.183Z,17.98
2023-03-26T13:03:15.761Z,17.98
2023-03-26T13:04:36.636Z,17.97
2023-03-26T13:05:14.936Z,17.93
2023-03-26T13:06:48.543Z,17.86
2023-03-26T13:07:15.069Z,17.82
2023-03-26T13:08:36.488Z,17.88
2023-03-26T13:09:14.921Z,17.89
2023-03-26T13:10:37.233Z,17.95
2023-03-26T13:11:14.881Z,17.98
2023-03-26T13:12:35.999Z,17.95
2023-03-26T13:13:15.451Z,17.94
2023-03-26T13:14:36.430Z,17.83
2023-03-26T13:15:15.111Z,17.83
2023-03-26T13:16:37.225Z,17.91
2023-03-26T13:17:15.233Z,17.67
2023-03-26T13:18:36.479Z,17.38
2023-03-26T13:19:14.647Z,17.44
2023-03-26T13:20:14.801Z,17.46
2023-03-26T13:21:37.137Z,17.49
2023-03-26T13:22:15.171Z,17.56
